createdAt,value
2023-03-02T00:01:49.784Z,20.55
2023-03-02T00:04:21.880Z,17.70
2023-03-02T00:06:52.428Z,20.38
2023-03-02T00:09:21.110Z,18.50
2023-03-02T00:11:49.428Z,18.73
2023-03-02T00:14:18.047Z,19.65
2023-03-02T00:16:47.528Z,21.50
2023-03-02T00:19:15.875Z,17.60
2023-03-02T00:21:44.425Z,22.10
2023-03-02T00:24:15.366Z,18.98
2023-03-02T00:26:43.632Z,18.83
2023-03-02T00:29:12.644Z,16.73
2023-03-02T00:31:40.847Z,17.27
2023-03-02T00:34:10.496Z,18.13
2023-03-02T00:36:38.898Z,20.88
2023-03-02T00:39:07.192Z,19.42
2023-03-02T00:41:35.380Z,18.75
2023-03-02T00:44:03.884Z,18.58
2023-03-02T00:46:32.401Z,16.70
2023-03-02T00:49:00.869Z,20.65
2023-03-02T00:51:30.496Z,16.92
2023-03-02T00:54:02.720Z,20.90
2023-03-02T00:56:31.674Z,19.70
2023-03-02T00:59:05.076Z,18.58
2023-03-02T01:01:33.894Z,19.60
2023-03-02T01:04:02.151Z,17.13
2023-03-02T01:06:32.022Z,18.23
2023-03-02T01:09:00.562Z,18.25
2023-03-02T01:11:28.825Z,18.60
2023-03-02T01:13:57.075Z,22.13
2023-03-02T01:16:25.378Z,18.42
2023-03-02T01:18:53.643Z,15.73
2023-03-02T01:21:21.856Z,15.73
2023-03-02T01:23:51.769Z,22.17
2023-03-02T01:26:19.977Z,16.70
2023-03-02T01:28:50.028Z,17.70
2023-03-02T01:31:18.347Z,16.98
2023-03-02T01:33:46.654Z,16.30
2023-03-02T01:36:14.962Z,16.52
2023-03-02T01:38:43.406Z,20.80
2023-03-02T01:41:13.625Z,16.88
2023-03-02T01:43:41.889Z,21.30
2023-03-02T01:46:15.291Z,17.92
2023-03-02T01:48:52.061Z,16.13
2023-03-02T01:51:41.828Z,15.20
2023-03-02T01:54:17.093Z,16.02
2023-03-02T01:56:47.786Z,18.55
2023-03-02T01:59:19.609Z,17.52
2023-03-02T02:01:52.412Z,15.68
2023-03-02T02:04:21.769Z,15.85
2023-03-02T02:06:55.559Z,17.27
2023-03-02T02:09:26.311Z,16.55
2023-03-02T02:11:55.994Z,17.00
2023-03-02T02:14:24.899Z,16.40
2023-03-02T02:16:54.122Z,16.73
2023-03-02T02:19:39.267Z,16.13
2023-03-02T02:22:07.704Z,20.15
2023-03-02T02:24:44.747Z,20.45
2023-03-02T02:27:15.256Z,17.10
2023-03-02T02:29:47.090Z,15.88
2023-03-02T02:32:19.227Z,16.95
2023-03-02T02:34:51.819Z,18.10
2023-03-02T02:37:27.192Z,18.13
2023-03-02T02:39:56.439Z,17.48
2023-03-02T02:42:29.395Z,21.20
2023-03-02T02:45:01.769Z,20.08
2023-03-02T02:47:30.216Z,15.20
2023-03-02T02:49:59.299Z,15.80
2023-03-02T02:52:29.727Z,15.63
2023-03-02T02:54:59.609Z,17.63
2023-03-02T02:57:30.938Z,16.25
2023-03-02T03:00:01.903Z,15.50
2023-03-02T03:02:38.488Z,16.80
2023-03-02T03:05:07.524Z,15.23
2023-03-02T03:07:36.896Z,15.68
2023-03-02T03:10:15.205Z,16.35
2023-03-02T03:12:45.287Z,14.95
2023-03-02T03:15:15.888Z,13.25
2023-03-02T03:17:49.545Z,15.15
2023-03-02T03:20:18.320Z,17.58
2023-03-02T03:22:46.601Z,15.68
2023-03-02T03:25:16.146Z,17.23
2023-03-02T03:27:50.027Z,15.63
2023-03-02T03:30:19.064Z,13.77
2023-03-02T03:32:48.183Z,16.50
2023-03-02T03:35:17.482Z,18.45
2023-03-02T03:37:48.331Z,17.23
2023-03-02T03:40:17.535Z,15.13
2023-03-02T03:42:47.175Z,14.55
2023-03-02T03:45:16.879Z,14.70
2023-03-02T03:47:46.031Z,14.43
2023-03-02T03:50:14.607Z,14.55
2023-03-02T03:52:43.931Z,16.00
2023-03-02T03:55:24.476Z,18.40
2023-03-02T03:57:52.744Z,16.20
2023-03-02T04:00:23.365Z,14.80
2023-03-02T04:02:57.878Z,14.55
2023-03-02T04:05:30.693Z,15.93
2023-03-02T04:08:01.942Z,14.80
2023-03-02T04:10:31.147Z,16.17
2023-03-02T04:12:59.497Z,16.13
2023-03-02T04:15:29.496Z,14.85
2023-03-02T04:17:59.847Z,14.15
2023-03-02T04:20:28.845Z,14.30
2023-03-02T04:22:58.767Z,18.05
2023-03-02T04:25:29.546Z,14.23
2023-03-02T04:28:03.338Z,15.38
2023-03-02T04:30:37.841Z,15.32
2023-03-02T04:33:06.109Z,15.18
2023-03-02T04:35:36.057Z,15.18
2023-03-02T04:38:05.299Z,13.35
2023-03-02T04:40:33.547Z,15.10
2023-03-02T04:43:01.806Z,13.98
2023-03-02T04:45:30.251Z,14.82
2023-03-02T04:47:59.743Z,13.68
2023-03-02T04:50:29.272Z,14.77
2023-03-02T04:52:57.873Z,14.48
2023-03-02T04:55:28.310Z,15.60
2023-03-02T04:57:56.517Z,13.32
2023-03-02T05:00:25.184Z,18.15
2023-03-02T05:02:53.453Z,15.90
2023-03-02T05:05:24.961Z,14.15
2023-03-02T05:07:54.000Z,14.32
2023-03-02T05:10:23.505Z,13.68
2023-03-02T05:13:02.205Z,15.15
2023-03-02T05:15:33.100Z,12.80
2023-03-02T05:18:01.691Z,14.10
2023-03-02T05:20:31.623Z,11.80
2023-03-02T05:23:01.843Z,16.55
2023-03-02T05:25:33.063Z,16.13
2023-03-02T05:28:02.080Z,17.23
2023-03-02T05:30:32.400Z,12.52
2023-03-02T05:33:00.612Z,13.38
2023-03-02T05:35:28.887Z,17.60
2023-03-02T05:37:58.412Z,13.55
2023-03-02T05:40:26.669Z,13.38
2023-03-02T05:42:54.889Z,13.13
2023-03-02T05:45:25.959Z,16.15
2023-03-02T05:47:54.187Z,13.10
2023-03-02T05:50:22.740Z,14.68
2023-03-02T05:52:51.229Z,12.75
2023-03-02T05:55:21.437Z,14.48
2023-03-02T05:57:49.708Z,14.60
2023-03-02T06:00:19.598Z,15.23
2023-03-02T06:02:48.184Z,12.98
2023-03-02T06:05:19.174Z,15.05
2023-03-02T06:07:47.772Z,15.30
2023-03-02T06:10:16.085Z,16.63
2023-03-02T06:12:45.533Z,13.85
2023-03-02T06:15:13.814Z,15.00
2023-03-02T06:17:42.180Z,13.75
2023-03-02T06:20:11.847Z,15.48
2023-03-02T06:22:41.190Z,14.93
2023-03-02T06:25:10.785Z,16.70
2023-03-02T06:27:40.502Z,15.00
2023-03-02T06:30:14.778Z,12.45
2023-03-02T06:32:43.541Z,13.90
2023-03-02T06:35:12.333Z,15.07
2023-03-02T06:37:43.645Z,15.02
2023-03-02T06:40:13.732Z,14.00
2023-03-02T06:42:43.195Z,15.30
2023-03-02T06:45:13.390Z,14.95
2023-03-02T06:47:41.773Z,15.38
2023-03-02T06:50:11.728Z,14.38
2023-03-02T06:52:40.287Z,14.88
2023-03-02T06:55:09.536Z,13.68
2023-03-02T06:57:37.992Z,14.60
2023-03-02T07:00:11.090Z,13.82
2023-03-02T07:02:40.565Z,12.98
2023-03-02T07:05:09.391Z,15.52
2023-03-02T07:07:37.714Z,13.98
2023-03-02T07:10:07.243Z,17.27
2023-03-02T07:12:35.690Z,16.05
2023-03-02T07:15:05.286Z,17.50
2023-03-02T07:17:35.207Z,14.65
2023-03-02T07:20:05.208Z,14.05
2023-03-02T07:22:33.516Z,17.50
2023-03-02T07:25:01.770Z,15.98
2023-03-02T07:27:30.023Z,15.88
2023-03-02T07:29:58.287Z,18.48
2023-03-02T07:32:26.837Z,14.90
2023-03-02T07:34:55.191Z,14.70
2023-03-02T07:37:24.813Z,14.77
2023-03-02T07:39:53.024Z,15.43
2023-03-02T07:42:21.316Z,16.88
2023-03-02T07:44:54.104Z,14.35
2023-03-02T07:47:22.380Z,14.50
2023-03-02T07:49:50.683Z,14.95
2023-03-02T07:52:19.163Z,29.30
2023-03-02T07:54:48.833Z,21.17
2023-03-02T07:57:18.111Z,15.88
2023-03-02T07:59:46.342Z,15.65
2023-03-02T08:02:16.705Z,14.15
2023-03-02T08:04:45.329Z,13.88
2023-03-02T08:07:13.596Z,14.98
2023-03-02T08:09:41.949Z,13.52
2023-03-02T08:12:11.437Z,17.25
2023-03-02T08:14:40.299Z,15.30
2023-03-02T08:17:08.834Z,14.75
2023-03-02T08:19:37.118Z,13.63
2023-03-02T08:22:05.352Z,17.50
2023-03-02T08:24:33.639Z,13.02
2023-03-02T08:27:02.639Z,15.95
2023-03-02T08:29:32.412Z,17.42
2023-03-02T08:32:01.531Z,15.27
2023-03-02T08:34:29.951Z,17.08
2023-03-02T08:36:58.147Z,17.65
2023-03-02T08:39:30.154Z,15.45
2023-03-02T08:41:58.460Z,17.63
2023-03-02T08:44:26.737Z,16.40
2023-03-02T08:46:56.202Z,13.82
2023-03-02T08:49:24.522Z,18.92
2023-03-02T08:51:53.616Z,16.48
2023-03-02T08:54:23.168Z,16.88
2023-03-02T08:56:51.615Z,17.15
2023-03-02T08:59:21.575Z,14.95
2023-03-02T09:01:50.160Z,14.07
2023-03-02T09:04:21.026Z,18.10
2023-03-02T09:06:49.246Z,17.13
2023-03-02T09:09:17.734Z,14.68
2023-03-02T09:11:46.399Z,17.40
2023-03-02T09:14:14.762Z,18.00
2023-03-02T09:16:43.564Z,16.08
2023-03-02T09:19:13.449Z,15.77
2023-03-02T09:21:42.907Z,16.52
2023-03-02T09:24:11.268Z,15.80
2023-03-02T09:26:40.050Z,15.23
2023-03-02T09:29:08.306Z,17.90
2023-03-02T09:31:37.718Z,15.65
2023-03-02T09:34:06.560Z,15.30
2023-03-02T09:36:34.988Z,14.77
2023-03-02T09:39:09.293Z,17.83
2023-03-02T09:42:01.567Z,15.00
2023-03-02T09:44:45.224Z,15.63
2023-03-02T09:47:33.300Z,16.95
2023-03-02T09:50:12.274Z,16.33
2023-03-02T09:52:46.613Z,15.23
2023-03-02T09:55:19.520Z,19.70
2023-03-02T09:57:48.273Z,17.52
2023-03-02T10:00:21.339Z,16.15
2023-03-02T10:02:52.192Z,16.92
2023-03-02T10:05:24.246Z,14.05
2023-03-02T10:07:52.680Z,14.88
2023-03-02T10:10:28.169Z,13.48
2023-03-02T10:13:07.334Z,15.13
2023-03-02T10:15:42.030Z,13.55
2023-03-02T10:18:20.549Z,18.33
2023-03-02T10:20:53.825Z,15.02
2023-03-02T10:23:36.853Z,15.20
2023-03-02T10:26:19.702Z,15.18
2023-03-02T10:28:51.907Z,18.35
2023-03-02T10:31:27.381Z,14.93
2023-03-02T10:33:56.339Z,17.45
2023-03-02T10:36:28.003Z,15.00
2023-03-02T10:38:57.825Z,15.88
2023-03-02T10:41:34.029Z,15.75
2023-03-02T10:44:05.574Z,12.05
2023-03-02T10:46:42.142Z,15.25
2023-03-02T10:49:26.515Z,12.68
2023-03-02T10:52:00.437Z,19.58
2023-03-02T10:54:30.208Z,14.00
2023-03-02T10:57:01.874Z,15.85
2023-03-02T10:59:39.877Z,14.85
2023-03-02T11:02:22.428Z,14.98
2023-03-02T11:04:57.226Z,12.88
2023-03-02T11:07:28.136Z,14.07
2023-03-02T11:10:00.361Z,16.45
2023-03-02T11:12:32.332Z,13.73
2023-03-02T11:15:18.745Z,15.60
2023-03-02T11:17:49.197Z,15.48
2023-03-02T11:20:22.676Z,13.15
2023-03-02T11:23:00.308Z,12.20
2023-03-02T11:25:33.154Z,16.98
2023-03-02T11:28:09.581Z,16.95
2023-03-02T11:30:46.505Z,14.10
2023-03-02T11:33:20.620Z,14.20
2023-03-02T11:35:55.611Z,13.15
2023-03-02T11:38:27.452Z,14.05
2023-03-02T11:40:59.709Z,12.90
2023-03-02T11:43:29.755Z,14.38
2023-03-02T11:46:01.670Z,14.07
2023-03-02T11:48:34.494Z,14.52
2023-03-02T11:51:05.240Z,13.52
2023-03-02T11:53:42.628Z,11.98
2023-03-02T11:56:10.903Z,14.73
2023-03-02T11:58:43.048Z,13.00
2023-03-02T12:01:18.731Z,11.82
2023-03-02T12:03:47.232Z,12.07
2023-03-02T12:06:35.423Z,12.32
2023-03-02T12:09:31.046Z,11.60
2023-03-02T12:12:02.080Z,12.55
2023-03-02T12:14:40.027Z,11.77
2023-03-02T12:17:22.193Z,15.30
2023-03-02T12:19:52.703Z,12.38
2023-03-02T12:22:30.532Z,12.48
2023-03-02T12:25:05.836Z,10.77
2023-03-02T12:27:39.190Z,11.25
2023-03-02T12:30:26.479Z,9.20
2023-03-02T12:33:06.226Z,10.98
2023-03-02T12:35:36.037Z,10.80
2023-03-02T12:38:08.222Z,11.85
2023-03-02T12:40:48.448Z,11.88
2023-03-02T12:43:32.587Z,11.85
2023-03-02T12:46:27.992Z,14.25
2023-03-02T12:49:05.675Z,13.63
2023-03-02T12:51:47.481Z,11.73
2023-03-02T12:54:18.497Z,13.05
2023-03-02T12:56:47.343Z,13.30
2023-03-02T12:59:22.608Z,10.90
2023-03-02T13:01:52.518Z,12.27
2023-03-02T13:04:23.873Z,11.40
2023-03-02T13:06:53.580Z,12.05
2023-03-02T13:09:22.722Z,11.13
2023-03-02T13:11:54.688Z,10.23
2023-03-02T13:14:26.851Z,11.57
2023-03-02T13:16:59.233Z,12.52
2023-03-02T13:19:30.544Z,11.15
2023-03-02T13:21:59.791Z,12.60
2023-03-02T13:24:33.594Z,10.48
2023-03-02T13:27:06.626Z,12.07
2023-03-02T13:29:35.446Z,11.23
2023-03-02T13:32:20.185Z,16.00
2023-03-02T13:34:50.866Z,11.20
2023-03-02T13:37:31.124Z,15.52
2023-03-02T13:40:01.563Z,16.08
2023-03-02T13:42:36.510Z,15.73
2023-03-02T13:45:22.812Z,12.27
2023-03-02T13:47:52.815Z,15.38
2023-03-02T13:50:23.716Z,16.45
2023-03-02T13:52:52.993Z,14.10
2023-03-02T13:55:22.723Z,12.85
2023-03-02T13:57:52.958Z,15.50
2023-03-02T14:00:23.252Z,12.57
2023-03-02T14:02:53.069Z,14.23
2023-03-02T14:05:24.301Z,11.85
2023-03-02T14:07:52.628Z,14.40
2023-03-02T14:10:21.651Z,13.50
2023-03-02T14:12:56.390Z,16.17
2023-03-02T14:15:24.750Z,12.68
2023-03-02T14:17:54.385Z,14.57
2023-03-02T14:20:22.577Z,15.35
2023-03-02T14:22:51.515Z,11.93
2023-03-02T14:25:20.474Z,11.43
2023-03-02T14:27:48.800Z,17.02
2023-03-02T14:30:20.022Z,11.70
2023-03-02T14:32:48.656Z,13.10
2023-03-02T14:35:18.174Z,11.30
2023-03-02T14:37:49.725Z,12.90
2023-03-02T14:40:22.872Z,12.27
2023-03-02T14:42:52.051Z,12.30
2023-03-02T14:45:21.056Z,12.93
2023-03-02T14:47:49.463Z,10.65
2023-03-02T14:50:19.282Z,10.52
2023-03-02T14:52:50.660Z,9.20
2023-03-02T14:55:25.728Z,11.70
2023-03-02T14:57:58.234Z,11.10
2023-03-02T15:00:26.673Z,9.50
2023-03-02T15:02:55.392Z,11.38
2023-03-02T15:05:25.078Z,9.85
2023-03-02T15:07:58.725Z,8.98
2023-03-02T15:10:27.325Z,10.35
2023-03-02T15:12:55.551Z,11.32
2023-03-02T15:15:24.959Z,9.32
2023-03-02T15:17:53.181Z,13.65
2023-03-02T15:20:21.492Z,12.10
2023-03-02T15:22:51.133Z,9.82
2023-03-02T15:25:19.390Z,7.80
2023-03-02T15:27:47.701Z,8.57
2023-03-02T15:30:15.980Z,7.72
2023-03-02T15:32:44.535Z,6.95
2023-03-02T15:35:13.107Z,6.70
2023-03-02T15:37:41.430Z,7.40
2023-03-02T15:40:11.877Z,8.32
2023-03-02T15:42:40.232Z,7.95
2023-03-02T15:45:08.842Z,8.30
2023-03-02T15:47:37.990Z,9.20
2023-03-02T15:50:06.957Z,6.65
2023-03-02T15:52:35.243Z,6.50
2023-03-02T15:55:03.449Z,6.47
2023-03-02T15:57:38.068Z,10.40
2023-03-02T16:00:07.417Z,6.97
2023-03-02T16:02:36.009Z,6.47
2023-03-02T16:05:04.367Z,7.43
2023-03-02T16:07:32.640Z,7.43
2023-03-02T16:10:00.819Z,6.90
2023-03-02T16:12:29.139Z,8.35
2023-03-02T16:14:58.606Z,7.57
2023-03-02T16:17:27.342Z,7.63
2023-03-02T16:19:55.514Z,6.13
2023-03-02T16:22:23.778Z,7.20
2023-03-02T16:24:51.972Z,8.63
2023-03-02T16:27:20.215Z,11.93
2023-03-02T16:29:48.513Z,7.20
2023-03-02T16:32:18.301Z,10.18
2023-03-02T16:34:46.597Z,8.23
2023-03-02T16:37:14.962Z,9.45
2023-03-02T16:39:43.189Z,8.35
2023-03-02T16:42:11.502Z,8.88
2023-03-02T16:44:40.117Z,8.02
2023-03-02T16:47:08.407Z,7.50
2023-03-02T16:49:37.883Z,10.98
2023-03-02T16:52:06.459Z,12.00
2023-03-02T16:54:34.666Z,9.65
2023-03-02T16:57:03.235Z,6.65
2023-03-02T16:59:31.443Z,7.72
2023-03-02T17:01:59.704Z,7.93
2023-03-02T17:04:28.072Z,12.88
2023-03-02T17:07:00.715Z,17.83
2023-03-02T17:09:29.351Z,10.07
2023-03-02T17:11:58.049Z,12.73
2023-03-02T17:14:26.503Z,11.32
2023-03-02T17:16:56.259Z,9.80
2023-03-02T17:19:26.687Z,6.55
2023-03-02T17:21:59.361Z,7.95
2023-03-02T17:24:28.221Z,9.18
2023-03-02T17:26:57.337Z,9.70
2023-03-02T17:29:25.806Z,10.70
2023-03-02T17:31:54.468Z,8.20
2023-03-02T17:34:23.041Z,10.23
2023-03-02T17:36:51.333Z,8.15
2023-03-02T17:39:20.966Z,19.45
2023-03-02T17:41:49.210Z,7.50
2023-03-02T17:44:17.514Z,9.60
2023-03-02T17:46:46.489Z,10.07
2023-03-02T17:49:14.909Z,7.50
2023-03-02T17:51:43.224Z,8.55
2023-03-02T17:54:11.479Z,9.43
2023-03-02T17:56:41.283Z,8.63
2023-03-02T17:59:09.680Z,7.88
2023-03-02T18:01:38.052Z,9.18
2023-03-02T18:04:06.590Z,9.15
2023-03-02T18:06:35.273Z,8.40
2023-03-02T18:09:04.244Z,10.57
2023-03-02T18:11:33.001Z,8.90
2023-03-02T18:14:03.187Z,7.43
2023-03-02T18:16:33.743Z,11.07
2023-03-02T18:19:02.855Z,8.02
2023-03-02T18:21:31.359Z,7.35
2023-03-02T18:23:59.621Z,8.50
2023-03-02T18:26:27.872Z,8.32
2023-03-02T18:28:56.458Z,8.32
2023-03-02T18:31:26.416Z,8.70
2023-03-02T18:33:54.782Z,7.93
2023-03-02T18:36:23.041Z,11.57
2023-03-02T18:38:53.098Z,15.55
2023-03-02T18:41:22.102Z,9.32
2023-03-02T18:43:50.792Z,8.88
2023-03-02T18:46:22.228Z,7.53
2023-03-02T18:48:52.811Z,8.13
2023-03-02T18:51:22.339Z,7.05
2023-03-02T18:53:51.175Z,7.68
2023-03-02T18:56:20.065Z,10.00
2023-03-02T18:58:48.507Z,7.97
2023-03-02T19:01:16.909Z,9.25
2023-03-02T19:03:46.224Z,7.70
2023-03-02T19:06:16.498Z,9.88
2023-03-02T19:08:44.991Z,8.40
2023-03-02T19:11:13.886Z,7.45
2023-03-02T19:13:42.255Z,7.55
2023-03-02T19:16:10.725Z,8.18
2023-03-02T19:18:39.123Z,8.98
2023-03-02T19:21:07.739Z,7.20
2023-03-02T19:23:38.318Z,9.15
2023-03-02T19:26:06.744Z,8.80
2023-03-02T19:28:36.079Z,8.40
2023-03-02T19:31:06.490Z,8.00
2023-03-02T19:33:34.781Z,8.95
2023-03-02T19:36:03.183Z,8.15
2023-03-02T19:38:31.529Z,10.77
2023-03-02T19:41:02.396Z,8.82
2023-03-02T19:43:30.681Z,7.95
2023-03-02T19:45:59.119Z,10.05
2023-03-02T19:48:29.651Z,8.50
2023-03-02T19:50:57.971Z,9.15
2023-03-02T19:53:26.322Z,9.20
2023-03-02T19:56:02.504Z,10.85
2023-03-02T19:58:33.078Z,10.13
2023-03-02T20:01:01.824Z,10.43
2023-03-02T20:03:30.137Z,11.65
2023-03-02T20:05:59.541Z,11.40
2023-03-02T20:08:27.944Z,11.50
2023-03-02T20:11:12.474Z,11.30
2023-03-02T20:13:40.739Z,10.07
2023-03-02T20:16:09.896Z,10.23
2023-03-02T20:18:39.341Z,10.77
2023-03-02T20:21:09.744Z,9.50
2023-03-02T20:23:38.309Z,9.45
2023-03-02T20:26:07.022Z,12.05
2023-03-02T20:28:37.520Z,10.20
2023-03-02T20:31:09.025Z,11.27
2023-03-02T20:33:40.645Z,9.25
2023-03-02T20:36:09.478Z,9.13
2023-03-02T20:38:41.346Z,10.70
2023-03-02T20:41:11.758Z,10.60
2023-03-02T20:43:43.289Z,10.73
2023-03-02T20:46:18.365Z,9.07
2023-03-02T20:48:47.742Z,11.20
2023-03-02T20:51:16.075Z,9.15
2023-03-02T20:53:46.877Z,8.82
2023-03-02T20:56:15.572Z,10.05
2023-03-02T20:58:46.694Z,9.15
2023-03-02T21:01:17.084Z,10.38
2023-03-02T21:03:46.407Z,9.52
2023-03-02T21:06:15.657Z,9.60
2023-03-02T21:08:45.385Z,9.25
2023-03-02T21:11:17.708Z,10.20
2023-03-02T21:13:48.500Z,9.95
2023-03-02T21:16:20.102Z,10.48
2023-03-02T21:18:48.375Z,9.65
2023-03-02T21:21:20.215Z,9.48
2023-03-02T21:23:51.684Z,10.60
2023-03-02T21:26:20.013Z,10.45
2023-03-02T21:28:49.679Z,9.55
2023-03-02T21:31:19.513Z,9.75
2023-03-02T21:33:49.515Z,9.73
2023-03-02T21:36:21.827Z,10.45
2023-03-02T21:38:50.824Z,14.52
2023-03-02T21:41:19.636Z,13.80
2023-03-02T21:43:49.117Z,12.20
2023-03-02T21:46:20.019Z,11.55
2023-03-02T21:48:48.950Z,10.30
2023-03-02T21:51:17.422Z,13.00
2023-03-02T21:53:45.637Z,10.88
2023-03-02T21:56:20.512Z,13.55
2023-03-02T21:58:51.305Z,11.35
2023-03-02T22:01:20.508Z,14.55
2023-03-02T22:03:49.941Z,15.25
2023-03-02T22:06:21.306Z,13.13
2023-03-02T22:08:50.117Z,11.38
2023-03-02T22:11:22.526Z,11.52
2023-03-02T22:13:53.438Z,12.27
2023-03-02T22:16:23.973Z,11.75
2023-03-02T22:18:56.267Z,11.63
2023-03-02T22:21:30.648Z,10.70
2023-03-02T22:24:14.787Z,12.00
2023-03-02T22:26:44.783Z,12.55
2023-03-02T22:29:17.607Z,11.48
2023-03-02T22:31:48.064Z,12.15
2023-03-02T22:34:20.472Z,13.48
2023-03-02T22:36:49.289Z,11.27
2023-03-02T22:39:24.171Z,11.35
2023-03-02T22:41:55.386Z,14.77
2023-03-02T22:44:26.233Z,11.90
2023-03-02T22:46:57.589Z,14.60
2023-03-02T22:49:25.825Z,13.90
2023-03-02T22:51:54.804Z,12.30
2023-03-02T22:54:24.988Z,12.75
2023-03-02T22:56:56.797Z,13.07
2023-03-02T22:59:27.582Z,12.68
2023-03-02T23:02:00.958Z,11.13
2023-03-02T23:04:36.377Z,14.30
2023-03-02T23:07:15.312Z,15.43
2023-03-02T23:09:43.873Z,14.13
2023-03-02T23:12:19.075Z,14.90
2023-03-02T23:14:52.002Z,15.70
2023-03-02T23:17:22.552Z,18.77
2023-03-02T23:19:52.218Z,17.55
2023-03-02T23:22:20.676Z,14.60
2023-03-02T23:24:48.941Z,17.10
2023-03-02T23:27:17.181Z,18.00
2023-03-02T23:29:45.547Z,16.45
2023-03-02T23:32:17.211Z,18.15
2023-03-02T23:34:47.386Z,17.52
2023-03-02T23:37:15.615Z,19.73
2023-03-02T23:39:46.089Z,19.15
2023-03-02T23:42:14.482Z,18.05
2023-03-02T23:44:42.664Z,18.77
2023-03-02T23:47:10.926Z,22.00
2023-03-02T23:49:40.464Z,19.08
2023-03-02T23:52:08.752Z,20.08
2023-03-02T23:54:36.908Z,20.92
2023-03-02T23:57:05.241Z,19.98
2023-03-02T23:59:33.399Z,19.70
